Time;durP1;ratioP1;P1;durP2;ratioP2;P2;SDS_P1;SDS_P2;PMS_P1;PMS_P2;Temp;Humidity;BMP_temperature;BMP_pressure;BME280_temperature;BME280_humidity;BME280_pressure;Samples;Min_cycle;Max_cycle;Signal;HPM_P1;HPM_P2
2023/09/18 00:01:48;;;;;;;3.50;3.10;;;22.20;61.80;;;;;;4998347;28;20081;-64
2023/09/18 00:04:13;;;;;;;5.55;3.55;;;22.00;62.30;;;;;;5017189;28;20041;-64
2023/09/18 00:06:39;;;;;;;3.13;2.85;;;22.00;62.60;;;;;;5018086;28;20121;-65
2023/09/18 00:09:06;;;;;;;5.05;3.42;;;22.00;63.20;;;;;;5018680;28;20076;-65
2023/09/18 00:11:32;;;;;;;3.72;2.67;;;22.10;63.40;;;;;;5023553;28;20104;-64
2023/09/18 00:13:57;;;;;;;4.22;3.40;;;22.20;63.10;;;;;;5020062;28;20117;-63
2023/09/18 00:16:24;;;;;;;4.22;2.92;;;22.20;62.80;;;;;;5022665;28;20021;-65
2023/09/18 00:18:49;;;;;;;4.78;3.33;;;22.10;62.60;;;;;;5020431;28;20105;-64
2023/09/18 00:21:15;;;;;;;3.67;3.35;;;22.10;62.60;;;;;;5020146;28;21482;-64
2023/09/18 00:23:40;;;;;;;4.32;3.38;;;22.00;63.30;;;;;;5019784;28;20033;-65
2023/09/18 00:26:06;;;;;;;3.83;3.35;;;22.00;63.10;;;;;;5017457;28;20327;-64
2023/09/18 00:28:31;;;;;;;6.47;3.67;;;22.00;62.90;;;;;;5019021;28;20029;-64
2023/09/18 00:30:57;;;;;;;5.53;3.65;;;22.00;63.20;;;;;;5013952;28;20088;-62
2023/09/18 00:33:23;;;;;;;4.05;3.65;;;22.00;63.30;;;;;;5017333;28;20040;-65
2023/09/18 00:35:50;;;;;;;3.88;3.50;;;21.90;62.80;;;;;;5019135;28;20305;-64
2023/09/18 00:38:16;;;;;;;3.88;3.30;;;21.90;62.50;;;;;;5014443;28;20124;-65
2023/09/18 00:40:42;;;;;;;4.05;3.65;;;21.80;62.80;;;;;;5020069;28;20034;-64
2023/09/18 00:43:08;;;;;;;3.97;3.13;;;21.90;62.50;;;;;;5019824;28;20041;-65
2023/09/18 00:45:35;;;;;;;3.78;3.47;;;21.90;63.20;;;;;;5020968;28;20033;-65
2023/09/18 00:48:01;;;;;;;3.53;3.22;;;22.00;62.70;;;;;;5019603;28;20307;-64
2023/09/18 00:50:26;;;;;;;4.00;3.38;;;21.90;62.50;;;;;;5019421;28;20120;-64
2023/09/18 00:52:52;;;;;;;3.75;3.08;;;21.90;62.80;;;;;;5016835;28;20045;-63
2023/09/18 00:55:18;;;;;;;4.78;3.47;;;21.90;62.40;;;;;;5015024;28;20485;-62
2023/09/18 00:57:44;;;;;;;3.70;3.25;;;21.90;61.90;;;;;;5015597;28;20038;-62
2023/09/18 01:00:17;;;;;;;4.63;3.40;;;21.90;62.00;;;;;;5014049;28;20036;-64
2023/09/18 01:02:44;;;;;;;3.67;3.33;;;21.90;62.70;;;;;;4997796;28;20117;-62
2023/09/18 01:05:10;;;;;;;3.33;2.80;;;21.90;62.50;;;;;;5015503;28;20529;-64
2023/09/18 01:07:36;;;;;;;3.38;3.08;;;22.00;62.10;;;;;;5012264;28;20104;-59
2023/09/18 01:10:03;;;;;;;3.60;3.03;;;21.90;62.60;;;;;;4995964;28;20034;-64
2023/09/18 01:12:48;;;;;;;4.28;3.40;;;21.90;62.60;;;;;;5023388;28;20480;-64
2023/09/18 01:15:19;;;;;;;4.18;2.97;;;21.90;62.40;;;;;;5021873;28;20080;-64
2023/09/18 01:17:46;;;;;;;3.20;2.90;;;21.90;62.40;;;;;;5018558;28;20037;-63
2023/09/18 01:20:12;;;;;;;3.40;3.10;;;21.90;62.30;;;;;;5018107;28;20061;-64
2023/09/18 01:22:38;;;;;;;3.65;3.03;;;21.80;61.90;;;;;;5016008;28;20092;-65
2023/09/18 01:25:04;;;;;;;4.15;3.75;;;21.80;62.20;;;;;;5016025;28;20108;-64
2023/09/18 01:27:29;;;;;;;4.93;2.80;;;21.80;62.30;;;;;;5013045;28;20041;-64
2023/09/18 01:29:55;;;;;;;3.60;2.90;;;21.70;61.90;;;;;;5014050;28;20034;-64
2023/09/18 01:32:26;;;;;;;5.82;3.63;;;21.70;61.80;;;;;;5014933;28;20052;-63
2023/09/18 01:34:54;;;;;;;4.22;3.67;;;21.60;61.40;;;;;;5011759;28;20460;-64
2023/09/18 01:37:23;;;;;;;3.08;2.80;;;21.60;62.10;;;;;;5002123;28;20407;-63
2023/09/18 01:39:50;;;;;;;3.58;3.28;;;21.60;61.80;;;;;;5023690;28;20479;-60
2023/09/18 01:42:16;;;;;;;3.72;3.33;;;21.50;61.40;;;;;;5016039;28;20029;-60
2023/09/18 01:44:44;;;;;;;3.45;3.15;;;21.50;61.90;;;;;;5019184;28;20032;-62
2023/09/18 01:47:14;;;;;;;3.72;3.15;;;21.50;61.90;;;;;;5018230;28;20361;-65
2023/09/18 01:49:40;;;;;;;4.28;3.00;;;21.50;62.00;;;;;;5017682;28;20037;-65
2023/09/18 01:52:07;;;;;;;4.22;3.83;;;21.50;62.30;;;;;;5016226;28;20356;-63
2023/09/18 01:54:33;;;;;;;4.70;3.45;;;21.50;62.00;;;;;;5014983;28;20623;-64
2023/09/18 01:57:00;;;;;;;4.05;3.17;;;21.60;62.00;;;;;;5012138;28;20109;-62
2023/09/18 01:59:25;;;;;;;3.72;3.30;;;21.50;61.80;;;;;;5014374;28;20041;-66
2023/09/18 02:01:53;;;;;;;3.67;3.38;;;21.50;62.10;;;;;;5014578;28;20578;-61
2023/09/18 02:04:19;;;;;;;4.82;3.28;;;21.40;62.00;;;;;;5015653;28;20211;-62
2023/09/18 02:06:46;;;;;;;3.47;3.17;;;21.40;62.10;;;;;;5020586;28;20042;-64
2023/09/18 02:09:12;;;;;;;4.15;3.28;;;21.40;62.30;;;;;;5003663;28;20440;-62
2023/09/18 02:11:39;;;;;;;3.05;2.75;;;21.40;62.50;;;;;;5024719;28;20049;-63
2023/09/18 02:14:06;;;;;;;3.58;3.28;;;21.50;62.30;;;;;;5017592;28;20030;-59
2023/09/18 02:16:40;;;;;;;3.83;3.53;;;21.50;62.00;;;;;;5017614;28;20052;-61
2023/09/18 02:19:07;;;;;;;5.00;3.80;;;21.50;61.90;;;;;;5017001;28;20428;-61
2023/09/18 02:21:32;;;;;;;3.80;3.05;;;21.60;62.10;;;;;;5013899;28;20026;-65
2023/09/18 02:23:58;;;;;;;3.33;3.03;;;21.50;62.20;;;;;;5013578;28;20026;-64
2023/09/18 02:26:24;;;;;;;3.47;2.95;;;21.50;61.50;;;;;;5016606;28;20037;-63
2023/09/18 02:28:53;;;;;;;4.30;3.60;;;21.50;61.50;;;;;;5016451;28;20403;-63
2023/09/18 02:31:19;;;;;;;3.33;3.03;;;21.50;61.60;;;;;;5015813;28;20056;-62
2023/09/18 02:33:44;;;;;;;4.00;2.88;;;21.40;61.90;;;;;;5018743;28;20191;-62
2023/09/18 02:36:10;;;;;;;3.55;2.85;;;21.40;62.30;;;;;;5020844;28;20517;-65
2023/09/18 02:38:35;;;;;;;5.13;3.63;;;21.50;62.00;;;;;;5020007;28;20057;-62
2023/09/18 02:41:01;;;;;;;3.42;3.10;;;21.50;62.20;;;;;;5017560;28;20041;-64
2023/09/18 02:43:26;;;;;;;3.75;3.30;;;21.50;62.20;;;;;;5019650;28;20450;-66
2023/09/18 02:45:52;;;;;;;3.95;3.60;;;21.50;62.00;;;;;;5018313;28;20040;-64
2023/09/18 02:48:18;;;;;;;3.25;2.95;;;21.50;62.10;;;;;;4998130;28;20033;-65
2023/09/18 02:50:44;;;;;;;3.88;3.55;;;21.40;62.00;;;;;;5016442;28;20036;-65
2023/09/18 02:53:21;;;;;;;3.63;3.08;;;21.50;62.50;;;;;;5011480;28;20399;-64
2023/09/18 02:55:49;;;;;;;3.65;3.20;;;21.50;62.70;;;;;;5013308;28;20112;-65
2023/09/18 02:58:16;;;;;;;3.83;2.90;;;21.50;62.00;;;;;;5012068;28;20089;-65
2023/09/18 03:00:45;;;;;;;4.00;3.70;;;21.50;62.30;;;;;;5014627;28;20414;-62
2023/09/18 03:03:12;;;;;;;5.82;3.40;;;21.40;62.50;;;;;;5017239;28;20049;-63
2023/09/18 03:05:38;;;;;;;5.68;4.10;;;21.40;62.40;;;;;;5025779;28;20132;-63
2023/09/18 03:08:04;;;;;;;3.78;3.17;;;21.40;62.40;;;;;;5017993;28;20318;-63
2023/09/18 03:10:34;;;;;;;4.25;3.65;;;21.30;62.80;;;;;;5016493;28;20141;-62
2023/09/18 03:13:00;;;;;;;3.60;3.30;;;21.30;62.70;;;;;;5016272;28;20548;-62
2023/09/18 03:15:26;;;;;;;4.13;3.47;;;21.30;63.00;;;;;;4999988;28;20045;-68
2023/09/18 03:17:51;;;;;;;4.25;2.90;;;21.40;62.90;;;;;;4996765;28;20034;-65
2023/09/18 03:20:17;;;;;;;3.88;3.35;;;21.30;62.90;;;;;;5013477;28;20057;-64
2023/09/18 03:22:43;;;;;;;3.78;3.35;;;21.40;63.10;;;;;;5012555;28;20034;-64
2023/09/18 03:25:08;;;;;;;5.13;3.92;;;21.30;63.00;;;;;;5014397;28;20037;-63
2023/09/18 03:27:34;;;;;;;3.75;3.42;;;21.40;63.10;;;;;;5016484;28;20068;-65
2023/09/18 03:29:59;;;;;;;4.07;3.08;;;21.40;63.10;;;;;;5016842;28;20033;-63
2023/09/18 03:32:25;;;;;;;3.88;3.58;;;21.40;63.40;;;;;;5021368;28;20034;-65
2023/09/18 03:34:53;;;;;;;3.83;3.53;;;21.40;63.40;;;;;;5022477;28;20334;-65
2023/09/18 03:37:19;;;;;;;5.95;3.78;;;21.40;63.50;;;;;;5020115;28;20038;-66
2023/09/18 03:39:44;;;;;;;3.75;3.28;;;21.50;63.70;;;;;;5020707;28;20074;-64
2023/09/18 03:42:10;;;;;;;4.50;3.40;;;21.50;63.40;;;;;;5018648;28;20029;-66
2023/09/18 03:44:36;;;;;;;4.38;3.83;;;21.50;63.40;;;;;;5021205;28;20063;-65
2023/09/18 03:47:03;;;;;;;4.57;3.70;;;21.50;63.70;;;;;;5017300;28;20055;-63
2023/09/18 03:49:29;;;;;;;4.13;3.65;;;21.60;63.40;;;;;;5016253;28;20026;-66
2023/09/18 03:51:54;;;;;;;4.75;4.28;;;21.60;63.40;;;;;;5015515;28;20048;-63
2023/09/18 03:54:20;;;;;;;3.50;3.20;;;21.60;63.40;;;;;;5015086;28;20053;-63
2023/09/18 03:56:46;;;;;;;3.90;3.58;;;21.60;63.40;;;;;;5016349;28;20473;-63
2023/09/18 03:59:12;;;;;;;6.18;3.83;;;21.60;63.20;;;;;;5017590;28;20505;-63
2023/09/18 04:01:37;;;;;;;4.60;4.07;;;21.50;63.30;;;;;;5022589;28;20071;-66
2023/09/18 04:04:03;;;;;;;6.57;4.13;;;21.40;63.40;;;;;;5020307;28;20026;-63
2023/09/18 04:06:43;;;;;;;4.20;3.80;;;21.40;63.90;;;;;;5019493;28;20041;-62
2023/09/18 04:09:09;;;;;;;5.18;3.95;;;21.40;64.10;;;;;;5016981;28;20554;-63
2023/09/18 04:11:35;;;;;;;4.30;3.90;;;21.40;64.00;;;;;;5019682;28;20038;-65
2023/09/18 04:14:01;;;;;;;4.70;4.07;;;21.30;64.10;;;;;;5018191;28;20113;-65
2023/09/18 04:16:35;;;;;;;5.75;4.40;;;21.30;64.00;;;;;;5018080;28;20030;-62
2023/09/18 04:19:01;;;;;;;5.03;4.00;;;21.30;64.30;;;;;;5015199;28;20158;-60
2023/09/18 04:21:27;;;;;;;7.28;4.78;;;21.20;64.40;;;;;;5015165;28;20033;-62
2023/09/18 04:23:57;;;;;;;5.47;4.15;;;21.30;64.40;;;;;;5017074;28;20025;-65
2023/09/18 04:26:23;;;;;;;4.30;3.80;;;21.30;64.20;;;;;;5013754;28;20060;-65
2023/09/18 04:28:48;;;;;;;4.10;3.30;;;21.30;64.30;;;;;;5022565;28;20040;-65
2023/09/18 04:31:14;;;;;;;4.38;3.97;;;21.40;64.30;;;;;;5019893;28;20160;-65
2023/09/18 04:33:39;;;;;;;4.72;4.18;;;21.40;64.20;;;;;;5020668;28;20488;-65
2023/09/18 04:36:05;;;;;;;4.15;3.75;;;21.40;64.00;;;;;;5016085;28;20509;-65
2023/09/18 04:38:31;;;;;;;4.85;3.58;;;21.40;64.00;;;;;;5021404;28;20041;-65
2023/09/18 04:41:00;;;;;;;5.40;4.03;;;21.40;64.10;;;;;;5020936;28;20033;-65
2023/09/18 04:43:26;;;;;;;5.35;3.90;;;21.40;63.90;;;;;;5021660;28;20560;-62
2023/09/18 04:45:51;;;;;;;5.78;3.72;;;21.40;64.30;;;;;;5020642;28;20076;-66
2023/09/18 04:48:17;;;;;;;5.47;3.55;;;21.40;64.00;;;;;;5017655;28;20514;-66
2023/09/18 04:50:43;;;;;;;5.38;3.75;;;21.40;64.20;;;;;;5016807;28;20030;-65
2023/09/18 04:53:09;;;;;;;4.07;3.67;;;21.40;63.80;;;;;;5016805;28;20033;-65
2023/09/18 04:55:34;;;;;;;6.35;3.92;;;21.40;64.60;;;;;;5014978;28;20040;-66
2023/09/18 04:58:00;;;;;;;4.35;3.90;;;21.40;64.00;;;;;;5019153;28;20044;-64
2023/09/18 05:00:26;;;;;;;4.32;3.83;;;21.40;64.20;;;;;;5021795;28;20518;-65
2023/09/18 05:02:52;;;;;;;4.60;3.55;;;21.50;63.90;;;;;;5020985;28;20255;-65
2023/09/18 05:05:18;;;;;;;5.00;3.90;;;21.40;64.00;;;;;;5019539;28;20034;-65
2023/09/18 05:07:44;;;;;;;4.90;3.78;;;21.40;63.80;;;;;;5020487;28;20041;-65
2023/09/18 05:10:10;;;;;;;4.45;3.58;;;21.40;64.10;;;;;;5020259;28;20048;-63
2023/09/18 05:12:39;;;;;;;6.15;4.07;;;21.30;64.20;;;;;;5018942;28;20043;-65
2023/09/18 05:15:04;;;;;;;4.13;3.72;;;21.40;64.80;;;;;;4998624;28;20033;-64
2023/09/18 05:17:46;;;;;;;3.90;3.40;;;21.50;65.10;;;;;;5013381;28;20038;-63
2023/09/18 05:20:16;;;;;;;4.43;3.80;;;21.50;64.50;;;;;;5015497;28;20037;-64
2023/09/18 05:22:43;;;;;;;8.20;3.60;;;21.60;64.20;;;;;;5018169;28;20112;-63
2023/09/18 05:25:12;;;;;;;5.07;3.13;;;21.60;64.30;;;;;;5015268;28;20022;-64
2023/09/18 05:27:44;;;;;;;7.50;3.60;;;21.70;64.30;;;;;;5023228;28;20060;-64
2023/09/18 05:30:21;;;;;;;5.88;3.65;;;21.70;64.20;;;;;;5020190;28;20045;-64
2023/09/18 05:32:47;;;;;;;5.55;4.22;;;21.70;64.00;;;;;;5020928;28;20376;-64
2023/09/18 05:35:13;;;;;;;8.55;4.10;;;21.70;64.00;;;;;;5018185;28;20163;-64
2023/09/18 05:37:40;;;;;;;8.70;3.50;;;21.70;64.10;;;;;;5018494;28;20407;-64
2023/09/18 05:40:10;;;;;;;4.85;3.83;;;21.70;64.00;;;;;;5017451;28;20045;-65
2023/09/18 05:42:43;;;;;;;3.63;3.22;;;21.70;64.00;;;;;;5017409;28;20124;-66
2023/09/18 05:45:13;;;;;;;6.68;4.00;;;21.70;64.20;;;;;;5015009;28;20472;-64
2023/09/18 05:47:39;;;;;;;4.18;3.63;;;21.70;63.80;;;;;;5015123;28;20089;-65
2023/09/18 05:50:09;;;;;;;6.97;3.85;;;21.70;63.70;;;;;;5016768;28;20048;-64
2023/09/18 05:52:35;;;;;;;5.43;3.90;;;21.60;63.70;;;;;;5014239;28;20520;-62
2023/09/18 05:55:02;;;;;;;6.30;3.50;;;21.70;63.70;;;;;;5014822;28;20040;-63
2023/09/18 05:57:28;;;;;;;6.38;3.97;;;21.70;63.40;;;;;;5004637;28;20033;-63
2023/09/18 05:59:55;;;;;;;4.25;3.50;;;21.70;63.50;;;;;;5019977;28;20074;-62
2023/09/18 06:02:21;;;;;;;4.43;4.03;;;21.70;63.30;;;;;;5017269;28;20117;-63
2023/09/18 06:04:46;;;;;;;4.80;3.90;;;21.70;63.30;;;;;;5019155;28;20310;-63
2023/09/18 06:07:13;;;;;;;4.30;3.45;;;21.70;63.10;;;;;;5017732;28;20070;-65
2023/09/18 06:09:38;;;;;;;4.75;3.13;;;21.70;62.70;;;;;;5017881;28;20064;-65
2023/09/18 06:12:05;;;;;;;3.88;3.47;;;21.70;62.70;;;;;;5016603;28;20064;-65
2023/09/18 06:14:31;;;;;;;4.70;3.40;;;21.70;62.80;;;;;;5013899;28;20064;-65
2023/09/18 06:16:57;;;;;;;5.60;3.55;;;21.80;62.60;;;;;;5014767;28;20497;-64
2023/09/18 06:19:23;;;;;;;6.50;3.50;;;21.80;62.20;;;;;;5016276;28;20044;-64
2023/09/18 06:21:48;;;;;;;5.43;3.15;;;21.80;62.40;;;;;;5014104;28;20124;-64
2023/09/18 06:24:14;;;;;;;3.65;3.20;;;21.80;62.30;;;;;;5015220;28;20407;-64
2023/09/18 06:26:40;;;;;;;3.67;3.05;;;21.80;62.10;;;;;;5023247;28;20061;-64
2023/09/18 06:29:05;;;;;;;3.50;3.20;;;21.80;62.00;;;;;;5022087;28;20132;-63
2023/09/18 06:31:31;;;;;;;4.07;3.42;;;21.80;62.30;;;;;;5018690;28;20038;-64
2023/09/18 06:33:57;;;;;;;3.55;3.20;;;21.90;62.80;;;;;;5018427;28;20029;-64
2023/09/18 06:36:22;;;;;;;5.75;3.33;;;21.90;62.80;;;;;;5018879;28;20033;-64
2023/09/18 06:38:48;;;;;;;3.55;3.13;;;21.90;62.60;;;;;;5017817;28;20108;-65
2023/09/18 06:41:14;;;;;;;3.80;3.25;;;21.90;62.60;;;;;;5021109;28;20033;-64
2023/09/18 06:43:39;;;;;;;5.07;3.33;;;21.90;62.50;;;;;;5013822;28;20396;-65
2023/09/18 06:46:07;;;;;;;4.85;3.30;;;21.90;62.30;;;;;;5014812;28;20626;-65
2023/09/18 06:48:32;;;;;;;6.32;3.08;;;22.00;62.40;;;;;;5014691;28;20040;-64
2023/09/18 06:50:59;;;;;;;5.05;3.47;;;21.90;62.30;;;;;;5014803;28;20034;-65
2023/09/18 06:53:26;;;;;;;5.57;3.10;;;21.90;62.50;;;;;;5015093;28;20045;-64
2023/09/18 06:55:52;;;;;;;4.80;3.25;;;21.90;62.60;;;;;;5022364;28;20480;-63
2023/09/18 06:58:17;;;;;;;5.18;3.55;;;22.00;62.50;;;;;;5020712;28;20045;-63
2023/09/18 07:00:43;;;;;;;4.55;3.22;;;22.00;62.50;;;;;;5017364;28;20036;-67
2023/09/18 07:03:09;;;;;;;4.15;3.00;;;22.00;62.40;;;;;;5016124;28;20029;-64
2023/09/18 07:05:35;;;;;;;4.10;3.22;;;22.00;62.40;;;;;;5019107;28;20123;-63
2023/09/18 07:08:00;;;;;;;6.05;3.13;;;22.00;62.50;;;;;;5004284;28;20521;-66
2023/09/18 07:10:26;;;;;;;7.28;3.40;;;22.00;62.50;;;;;;5022655;28;20310;-65
2023/09/18 07:12:52;;;;;;;3.65;2.83;;;22.00;62.60;;;;;;5018083;28;20497;-64
2023/09/18 07:15:17;;;;;;;5.07;3.40;;;22.00;62.60;;;;;;5018469;28;20030;-64
2023/09/18 07:17:43;;;;;;;4.72;3.22;;;22.00;62.70;;;;;;5017002;28;20034;-66
2023/09/18 07:20:13;;;;;;;3.85;3.45;;;22.00;62.70;;;;;;5016517;28;20060;-66
2023/09/18 07:22:41;;;;;;;4.53;3.50;;;22.00;62.70;;;;;;5015862;28;20100;-66
2023/09/18 07:25:07;;;;;;;3.97;3.58;;;22.00;63.30;;;;;;5024003;28;20057;-66
2023/09/18 07:27:32;;;;;;;6.80;3.40;;;22.00;62.70;;;;;;5023489;28;20395;-62
2023/09/18 07:29:58;;;;;;;5.28;2.85;;;22.10;62.80;;;;;;5020808;28;20088;-66
2023/09/18 07:32:26;;;;;;;3.22;2.92;;;22.10;62.80;;;;;;5022969;28;20033;-66
2023/09/18 07:34:52;;;;;;;3.90;3.13;;;22.10;62.80;;;;;;5021950;28;20025;-66
2023/09/18 07:37:20;;;;;;;6.70;3.42;;;22.10;62.80;;;;;;5019862;28;20092;-65
2023/09/18 07:39:46;;;;;;;3.80;3.20;;;22.10;63.40;;;;;;5002735;28;20575;-66
2023/09/18 07:42:12;;;;;;;3.80;2.95;;;22.10;62.70;;;;;;5020073;28;20120;-65
2023/09/18 07:44:37;;;;;;;3.50;3.20;;;22.10;62.70;;;;;;5017068;28;21376;-66
2023/09/18 07:47:03;;;;;;;5.05;3.22;;;22.10;62.80;;;;;;5018022;28;20130;-63
2023/09/18 07:49:29;;;;;;;4.43;3.28;;;22.10;62.70;;;;;;5016577;28;20487;-66
2023/09/18 07:51:54;;;;;;;4.43;3.10;;;22.20;62.90;;;;;;5021938;28;20030;-65
2023/09/18 07:54:20;;;;;;;3.42;3.13;;;22.20;62.90;;;;;;5023584;28;20529;-65
2023/09/18 07:56:45;;;;;;;4.10;2.58;;;22.20;63.00;;;;;;5023530;28;20036;-66
2023/09/18 07:59:11;;;;;;;5.72;3.50;;;22.20;62.90;;;;;;5020485;28;20026;-66
2023/09/18 08:01:36;;;;;;;4.20;3.05;;;22.20;62.80;;;;;;5017401;28;20021;-66
2023/09/18 08:04:02;;;;;;;3.33;2.70;;;22.20;62.70;;;;;;5019585;28;20057;-65
2023/09/18 08:06:28;;;;;;;2.63;2.42;;;22.20;62.60;;;;;;5020109;28;20034;-65
2023/09/18 08:08:53;;;;;;;3.25;2.28;;;22.20;62.70;;;;;;5020836;28;20221;-66
2023/09/18 08:11:19;;;;;;;4.13;2.60;;;22.20;62.80;;;;;;5019570;28;20018;-65
2023/09/18 08:13:44;;;;;;;2.90;2.60;;;22.20;62.60;;;;;;5014317;28;20021;-65
2023/09/18 08:16:10;;;;;;;4.45;2.65;;;22.20;62.50;;;;;;5013850;28;20061;-65
2023/09/18 08:18:36;;;;;;;3.55;2.70;;;22.20;62.70;;;;;;5015115;28;20041;-65
2023/09/18 08:21:01;;;;;;;3.80;2.50;;;22.30;62.60;;;;;;5016619;28;20038;-65
2023/09/18 08:23:27;;;;;;;4.80;2.50;;;22.20;62.40;;;;;;5020865;28;20488;-66
2023/09/18 08:25:56;;;;;;;2.55;2.33;;;22.30;62.10;;;;;;5022921;28;20175;-65
2023/09/18 08:28:21;;;;;;;3.67;2.70;;;22.30;62.00;;;;;;5019273;28;20042;-65
2023/09/18 08:30:47;;;;;;;2.88;2.67;;;22.30;62.20;;;;;;5018091;28;20021;-65
2023/09/18 08:33:13;;;;;;;3.72;2.40;;;22.30;62.20;;;;;;5002143;28;20030;-65
2023/09/18 08:35:39;;;;;;;2.95;2.60;;;22.30;62.10;;;;;;5016890;28;20080;-65
2023/09/18 08:38:05;;;;;;;3.05;2.30;;;22.30;62.10;;;;;;5019870;28;20043;-65
2023/09/18 08:40:31;;;;;;;3.42;2.30;;;22.30;62.10;;;;;;5017298;28;20052;-66
2023/09/18 08:43:00;;;;;;;3.28;2.15;;;22.30;62.00;;;;;;5016332;28;20068;-65
2023/09/18 08:45:45;;;;;;;3.22;2.65;;;22.30;62.00;;;;;;5016915;28;20041;-66
2023/09/18 08:48:11;;;;;;;4.40;2.30;;;22.30;62.00;;;;;;5015126;28;20443;-65
2023/09/18 08:50:38;;;;;;;3.10;2.80;;;22.30;62.20;;;;;;5018674;28;20026;-65
2023/09/18 08:53:04;;;;;;;2.83;2.50;;;22.30;62.10;;;;;;5021825;28;20056;-64
2023/09/18 08:55:30;;;;;;;3.63;2.53;;;22.30;62.30;;;;;;5023284;28;20037;-65
2023/09/18 08:57:58;;;;;;;2.53;2.22;;;22.40;62.60;;;;;;5023541;28;20033;-65
2023/09/18 09:00:24;;;;;;;3.55;2.90;;;22.40;62.50;;;;;;5019523;28;20068;-65
2023/09/18 09:02:51;;;;;;;3.40;2.25;;;22.30;62.40;;;;;;5020585;28;20049;-65
2023/09/18 09:05:17;;;;;;;3.63;2.35;;;22.40;62.50;;;;;;5020066;28;20048;-65
2023/09/18 09:07:42;;;;;;;6.90;3.17;;;22.40;62.30;;;;;;5016069;28;20560;-65
2023/09/18 09:10:08;;;;;;;2.92;2.67;;;22.40;62.20;;;;;;5018215;28;20033;-65
2023/09/18 09:12:49;;;;;;;3.28;2.47;;;22.40;62.20;;;;;;5015878;28;20034;-64
2023/09/18 09:15:15;;;;;;;2.53;2.33;;;22.40;62.30;;;;;;5016404;28;20094;-66
2023/09/18 09:17:42;;;;;;;2.80;2.40;;;22.50;62.40;;;;;;5020567;28;20049;-65
2023/09/18 09:20:12;;;;;;;3.28;2.63;;;22.50;62.50;;;;;;5017931;28;20557;-66
2023/09/18 09:22:40;;;;;;;3.58;2.55;;;22.50;62.20;;;;;;5020542;28;20030;-66
2023/09/18 09:25:26;;;;;;;4.90;3.10;;;22.50;62.50;;;;;;5023142;28;20036;-66
2023/09/18 09:27:53;;;;;;;3.20;2.88;;;22.50;62.70;;;;;;5012383;28;20052;-65
2023/09/18 09:30:20;;;;;;;3.13;2.47;;;22.50;62.60;;;;;;5018752;28;20041;-65
2023/09/18 09:32:49;;;;;;;3.00;2.70;;;22.50;62.70;;;;;;5019678;28;20124;-65
2023/09/18 09:35:29;;;;;;;3.85;2.47;;;22.50;62.70;;;;;;5021196;28;20495;-66
2023/09/18 09:38:14;;;;;;;3.50;2.45;;;22.50;62.70;;;;;;5016390;28;20125;-65
2023/09/18 09:40:41;;;;;;;5.50;2.50;;;22.50;62.90;;;;;;5016992;28;20035;-65
2023/09/18 09:43:09;;;;;;;4.25;2.85;;;22.50;62.90;;;;;;5016547;28;20045;-66
2023/09/18 09:45:35;;;;;;;3.63;2.75;;;22.50;63.00;;;;;;5015505;28;20038;-65
2023/09/18 09:48:04;;;;;;;3.83;2.60;;;22.50;63.10;;;;;;5017494;28;20414;-66
2023/09/18 09:50:29;;;;;;;6.53;2.80;;;22.50;63.20;;;;;;5021005;28;20030;-66
2023/09/18 09:52:55;;;;;;;10.88;3.17;;;22.50;63.20;;;;;;5022619;28;20044;-66
2023/09/18 09:55:24;;;;;;;4.07;3.08;;;22.50;63.60;;;;;;5022079;28;20056;-65
2023/09/18 09:58:04;;;;;;;3.20;2.67;;;22.50;63.60;;;;;;5019999;28;20037;-66
2023/09/18 10:00:43;;;;;;;4.60;2.80;;;22.50;63.80;;;;;;5020171;28;20503;-66
2023/09/18 10:03:10;;;;;;;4.40;3.22;;;22.50;63.80;;;;;;5015401;28;20084;-65
2023/09/18 10:05:38;;;;;;;4.25;2.70;;;22.50;63.80;;;;;;5019895;28;20033;-64
2023/09/18 10:08:08;;;;;;;3.75;2.80;;;22.50;64.00;;;;;;5014783;28;20496;-64
2023/09/18 10:10:49;;;;;;;4.05;2.42;;;22.50;64.20;;;;;;5017881;28;20492;-66
2023/09/18 10:13:30;;;;;;;4.10;2.65;;;22.50;64.20;;;;;;5016996;28;20030;-65
2023/09/18 10:15:57;;;;;;;4.78;2.80;;;22.60;64.30;;;;;;5016046;28;20029;-66
2023/09/18 10:18:27;;;;;;;4.25;2.85;;;22.60;64.40;;;;;;5019589;28;20525;-64
2023/09/18 10:21:02;;;;;;;4.15;3.20;;;22.60;63.90;;;;;;5021518;28;20520;-65
2023/09/18 10:23:44;;;;;;;4.38;3.40;;;22.60;63.50;;;;;;5022155;28;20398;-65
2023/09/18 10:26:12;;;;;;;6.70;3.58;;;22.60;63.40;;;;;;5022879;28;20045;-66
2023/09/18 10:28:39;;;;;;;5.78;2.92;;;22.60;63.60;;;;;;5003241;28;20068;-65
2023/09/18 10:31:06;;;;;;;3.88;2.80;;;22.70;63.90;;;;;;5019632;28;20373;-64
2023/09/18 10:33:32;;;;;;;8.15;4.47;;;22.60;63.80;;;;;;5022062;28;20395;-65
2023/09/18 10:36:00;;;;;;;3.60;3.30;;;22.70;63.50;;;;;;5020614;28;20548;-65
2023/09/18 10:38:27;;;;;;;4.85;3.35;;;22.70;63.60;;;;;;5019681;28;20112;-66
2023/09/18 10:40:55;;;;;;;4.95;3.20;;;22.80;63.80;;;;;;5021050;28;20395;-66
2023/09/18 10:43:21;;;;;;;4.88;3.35;;;22.80;63.70;;;;;;5022743;28;20448;-66
2023/09/18 10:45:48;;;;;;;5.57;3.10;;;22.80;63.90;;;;;;5019584;28;20025;-65
2023/09/18 10:48:15;;;;;;;7.70;3.33;;;22.80;63.90;;;;;;5024131;28;20053;-66
2023/09/18 10:50:43;;;;;;;6.13;2.97;;;22.80;64.00;;;;;;5027557;28;20068;-66
2023/09/18 10:53:08;;;;;;;6.70;3.35;;;22.90;63.60;;;;;;5024582;28;20037;-65
2023/09/18 10:55:36;;;;;;;8.55;4.55;;;22.90;63.40;;;;;;5024493;28;20043;-65
2023/09/18 10:58:02;;;;;;;8.98;3.10;;;22.90;63.50;;;;;;5021979;28;20059;-66
2023/09/18 11:00:30;;;;;;;7.75;3.67;;;22.90;63.80;;;;;;5023594;28;20511;-66
2023/09/18 11:03:17;;;;;;;9.38;3.40;;;22.90;63.40;;;;;;5019011;28;20080;-66
2023/09/18 11:05:45;;;;;;;7.85;3.10;;;22.90;63.40;;;;;;5020353;28;20882;-65
2023/09/18 11:08:27;;;;;;;8.15;3.40;;;22.90;63.20;;;;;;5020680;28;20028;-65
2023/09/18 11:11:04;;;;;;;5.22;3.00;;;22.90;63.00;;;;;;5021129;28;20029;-66
2023/09/18 11:13:39;;;;;;;11.30;3.47;;;22.90;63.20;;;;;;5018134;28;20284;-66
2023/09/18 11:16:27;;;;;;;7.32;3.70;;;22.90;63.00;;;;;;5022253;28;20030;-65
2023/09/18 11:18:53;;;;;;;8.70;2.90;;;22.90;63.00;;;;;;5022869;28;20041;-65
2023/09/18 11:21:31;;;;;;;10.23;3.40;;;22.90;62.80;;;;;;5024658;28;20459;-66
2023/09/18 11:24:17;;;;;;;10.13;3.28;;;22.90;62.90;;;;;;5020165;28;20030;-66
2023/09/18 11:26:44;;;;;;;6.85;3.33;;;22.90;63.00;;;;;;5021148;28;20535;-66
2023/09/18 11:29:13;;;;;;;9.95;2.92;;;22.90;62.80;;;;;;5022153;28;20267;-65
2023/09/18 11:31:47;;;;;;;9.93;3.30;;;22.90;63.00;;;;;;5021182;28;20029;-65
2023/09/18 11:34:19;;;;;;;7.97;3.08;;;22.90;62.80;;;;;;5022815;28;20503;-66
2023/09/18 11:36:45;;;;;;;8.27;2.90;;;23.00;62.80;;;;;;5023747;28;20033;-64
2023/09/18 11:39:12;;;;;;;8.02;3.20;;;23.00;62.80;;;;;;5022833;28;20026;-65
2023/09/18 11:41:38;;;;;;;9.23;3.03;;;22.90;62.70;;;;;;5020605;28;20408;-65
2023/09/18 11:44:16;;;;;;;9.23;2.88;;;23.00;62.90;;;;;;5020179;28;20084;-65
2023/09/18 11:46:48;;;;;;;5.55;2.70;;;22.90;62.80;;;;;;5022459;28;20018;-65
2023/09/18 11:49:14;;;;;;;9.98;3.00;;;23.00;63.00;;;;;;5022584;28;20034;-62
2023/09/18 11:51:40;;;;;;;9.15;2.95;;;23.00;63.00;;;;;;5023337;28;20030;-66
2023/09/18 11:54:07;;;;;;;6.68;3.22;;;22.90;62.90;;;;;;5025709;28;20022;-65
2023/09/18 11:56:33;;;;;;;6.45;3.55;;;22.90;62.90;;;;;;5005466;28;20022;-65
2023/09/18 11:58:59;;;;;;;8.90;3.17;;;22.90;63.00;;;;;;5020800;28;20061;-65
2023/09/18 12:01:27;;;;;;;7.85;2.88;;;23.00;63.00;;;;;;5025489;28;20084;-62
2023/09/18 12:04:00;;;;;;;8.50;3.28;;;22.90;63.00;;;;;;5006953;28;20037;-65
2023/09/18 12:06:26;;;;;;;9.07;3.10;;;22.90;63.30;;;;;;5020474;28;20032;-65
2023/09/18 12:08:53;;;;;;;8.25;2.97;;;22.90;63.40;;;;;;5021446;28;20038;-65
2023/09/18 12:11:19;;;;;;;6.65;3.20;;;22.90;63.50;;;;;;5017881;28;20026;-65
2023/09/18 12:13:52;;;;;;;4.80;2.83;;;22.90;63.50;;;;;;5021183;28;20048;-66
2023/09/18 12:16:18;;;;;;;6.90;3.15;;;22.90;63.70;;;;;;5024780;28;20030;-65
2023/09/18 12:18:49;;;;;;;7.88;2.53;;;22.90;63.60;;;;;;5023281;28;20055;-65
2023/09/18 12:21:16;;;;;;;6.85;2.90;;;22.90;63.50;;;;;;5021800;28;20080;-61
2023/09/18 12:23:44;;;;;;;8.32;3.40;;;22.90;63.50;;;;;;5021566;28;20117;-65
2023/09/18 12:26:14;;;;;;;8.55;3.67;;;22.90;63.60;;;;;;5020202;28;20025;-65
2023/09/18 12:28:43;;;;;;;5.50;3.42;;;22.90;63.90;;;;;;5002373;28;20034;-65
2023/09/18 12:31:13;;;;;;;7.90;3.15;;;22.90;64.30;;;;;;5017953;28;20496;-65
2023/09/18 12:33:40;;;;;;;5.53;3.67;;;22.90;64.10;;;;;;5022402;28;20040;-65
2023/09/18 12:36:07;;;;;;;8.82;3.17;;;22.90;64.10;;;;;;5022210;28;20030;-64
2023/09/18 12:38:34;;;;;;;9.80;3.38;;;22.90;64.10;;;;;;5017386;28;20073;-65
2023/09/18 12:41:05;;;;;;;7.15;3.15;;;22.90;64.20;;;;;;5018824;28;20030;-65
2023/09/18 12:43:39;;;;;;;8.20;2.95;;;23.00;64.50;;;;;;5021628;28;20034;-66
2023/09/18 12:46:06;;;;;;;9.32;3.10;;;22.90;64.60;;;;;;5023906;28;20037;-65
2023/09/18 12:48:36;;;;;;;6.82;3.45;;;23.00;64.50;;;;;;5021238;28;20033;-69